Decoded Metar for KGON (GROTON/NEW LONDO in CT, USA) (IATA:GON) | Meteo·Mobile Aviation Weather
aviador You're here:

KGON Decoded Metar

GROTON/NEW LONDO in CT, USA
Report Time2018-09-18 20:56:00
UTC Time2018-09-18 21:13:45
Flight Rules ifr IFR
Wind360° at 07 kt
W.Decomp.*RWY 05: 5.7 kt HW 4.1 kt LCW
RWY 33: 5.0 kt HW 4.9 kt RCW
Visibility4828 m
Phenomena:Light Rain
Mist
Clouds:Broken 008 Hf
Broken 080 Hf
Overcast 100 Hf
Expected CloudBase > 400 ft AGL from Temp-Dew spread
Ceiling800 ft
Temp23°C (ISA +8)
Dew Point22°C (94% RH)
QNH1007 hPa
Density Alt1,493 ft
Elevation10 ft
Report Wrong Elevation
Raw Report
KGON 182056Z 36007KT 3SM -RA BR BKN008 BKN080 OVC100 23/22 A2973
RMK AO2 LTG DSNT SE AND S SLP066 P0015 60072 T02280222 50004
$=

Extra information for KGON:More info

Metar Taf Metar & Taf Last 4 Metars F.Rules Stats Wind Profile Meteogram Temp Stats Airport Information Weather charts Add Link Nearby VenuesMetar ALERT Operation Metar Decoded Social comments

AIRNAV info for KGON